Lincoln, United Kingdom
Current Conditions -  °F | °C
As of 5:50 AM on Saturday 29 Nov 2014 (Local Time) from EGXW Reporting Station
Haze Haze  
Wind Chill: 43°   Ceiling: 9000
Heat Index: 48°   Visibility: 4mi
Dew Point: 46°   Wind: 13mph
Humidity: 93%   Direction: 90°E
Pressure: 29.83"   Gusts: NA
Location:  53.23°N, 0.54°W
Report Text: EGXW 290550Z 09011KT 6000 BR FEW007 OVC090 09/08 Q1010 WHT
Loading
Personal Weather Stations






























Interactive Weather Map New forecast layout! Learn more

10-Day Weather Forecast

Advertisements
Track Severe Weather on mobile